createdAt,value
2023-03-10T00:01:23.077Z,98433.19
2023-03-10T00:03:50.317Z,98433.88
2023-03-10T00:06:20.034Z,98442.59
2023-03-10T00:08:47.306Z,98439.41
2023-03-10T00:11:14.141Z,98654.88
2023-03-10T00:13:40.652Z,98663.38
2023-03-10T00:16:08.252Z,98631.00
2023-03-10T00:18:34.966Z,98616.13
2023-03-10T00:21:01.511Z,98598.69
2023-03-10T00:23:28.008Z,98601.69
2023-03-10T00:25:59.781Z,98624.13
2023-03-10T00:28:27.737Z,98628.72
2023-03-10T00:31:05.687Z,98630.56
2023-03-10T00:33:33.701Z,98680.81
2023-03-10T00:36:15.694Z,98693.88
2023-03-10T00:38:43.551Z,98711.25
2023-03-10T00:41:21.877Z,98741.59
2023-03-10T00:43:49.082Z,98730.25
2023-03-10T00:46:16.109Z,98735.81
2023-03-10T00:48:43.525Z,98758.38
2023-03-10T00:51:10.203Z,98754.00
2023-03-10T00:53:40.968Z,98777.50
2023-03-10T00:56:19.708Z,98808.69
2023-03-10T00:58:47.696Z,98822.16
2023-03-10T01:01:17.365Z,98830.69
2023-03-10T01:03:44.754Z,98827.75
2023-03-10T01:06:12.833Z,98829.09
2023-03-10T01:08:39.876Z,98822.47
2023-03-10T01:11:06.817Z,98831.91
2023-03-10T01:13:33.652Z,98823.78
2023-03-10T01:16:00.345Z,98827.78
2023-03-10T01:18:26.871Z,98827.91
2023-03-10T01:20:53.492Z,98837.00
2023-03-10T01:23:22.432Z,98842.03
2023-03-10T01:25:49.125Z,98838.81
2023-03-10T01:28:16.728Z,98855.25
2023-03-10T01:30:43.968Z,98843.88
2023-03-10T01:33:12.021Z,98858.66
2023-03-10T01:35:39.147Z,98869.69
2023-03-10T01:38:06.759Z,98949.41
2023-03-10T01:40:33.534Z,98959.16
2023-03-10T01:43:33.042Z,98898.13
2023-03-10T01:46:02.569Z,98881.06
2023-03-10T01:48:34.142Z,98881.63
2023-03-10T01:51:01.227Z,98894.25
2023-03-10T01:53:29.516Z,98918.13
2023-03-10T01:56:02.937Z,98927.28
2023-03-10T01:58:37.837Z,98940.84
2023-03-10T02:01:05.574Z,98957.28
2023-03-10T02:03:41.065Z,98976.78
2023-03-10T02:06:13.924Z,99087.66
2023-03-10T02:08:46.246Z,99089.84
2023-03-10T02:11:14.898Z,99098.94
2023-03-10T02:13:41.533Z,99101.94
2023-03-10T02:16:08.295Z,99080.09
2023-03-10T02:18:35.024Z,98994.09
2023-03-10T02:21:27.993Z,99049.31
2023-03-10T02:24:22.037Z,99060.13
2023-03-10T02:27:10.687Z,99054.75
2023-03-10T02:30:00.035Z,99030.97
2023-03-10T02:32:30.748Z,99011.25
2023-03-10T02:34:57.642Z,98985.28
2023-03-10T02:37:30.740Z,98987.78
2023-03-10T02:39:58.001Z,98987.78
2023-03-10T02:42:36.512Z,98984.34
2023-03-10T02:45:04.219Z,98991.91
2023-03-10T02:47:30.800Z,98984.44
2023-03-10T02:49:57.528Z,98993.38
2023-03-10T02:52:28.621Z,99021.41
2023-03-10T02:54:55.193Z,98979.97
2023-03-10T02:57:21.788Z,98954.81
2023-03-10T02:59:48.288Z,98970.19
2023-03-10T03:02:14.796Z,98969.19
2023-03-10T03:04:41.315Z,98969.59
2023-03-10T03:07:08.023Z,98968.69
2023-03-10T03:09:35.414Z,98966.06
2023-03-10T03:12:02.008Z,98962.13
2023-03-10T03:14:28.538Z,98955.50
2023-03-10T03:16:55.263Z,98943.53
2023-03-10T03:19:22.126Z,98956.72
2023-03-10T03:21:50.097Z,98958.00
2023-03-10T03:24:18.609Z,98955.22
2023-03-10T03:26:45.238Z,98967.84
2023-03-10T03:29:12.149Z,98960.72
2023-03-10T03:31:38.988Z,98971.75
2023-03-10T03:34:05.801Z,98970.56
2023-03-10T03:36:32.456Z,98942.44
2023-03-10T03:38:58.933Z,98952.03
2023-03-10T03:41:25.460Z,98954.53
2023-03-10T03:43:52.002Z,98942.03
2023-03-10T03:46:18.558Z,98955.44
2023-03-10T03:48:45.087Z,98956.91
2023-03-10T03:51:11.593Z,98947.03
2023-03-10T03:53:38.034Z,98951.72
2023-03-10T03:56:04.923Z,98960.06
2023-03-10T03:58:31.408Z,98963.94
2023-03-10T04:00:57.954Z,98971.25
2023-03-10T04:03:24.580Z,98963.63
2023-03-10T04:05:51.348Z,98972.94
2023-03-10T04:08:17.954Z,98972.34
2023-03-10T04:10:50.902Z,98965.47
2023-03-10T04:13:17.626Z,98966.47
2023-03-10T04:15:44.110Z,98980.25
2023-03-10T04:18:10.767Z,98971.31
2023-03-10T04:20:37.756Z,98970.53
2023-03-10T04:23:04.597Z,98964.66
2023-03-10T04:25:31.277Z,98971.75
2023-03-10T04:27:58.092Z,98971.38
2023-03-10T04:30:29.477Z,98974.84
2023-03-10T04:33:00.800Z,98984.78
2023-03-10T04:35:27.678Z,98969.41
2023-03-10T04:37:54.375Z,98978.38
2023-03-10T04:40:21.524Z,98975.91
2023-03-10T04:42:48.093Z,98976.13
2023-03-10T04:45:14.615Z,98974.75
2023-03-10T04:47:41.340Z,98970.94
2023-03-10T04:50:10.144Z,98973.44
2023-03-10T04:52:36.719Z,98979.00
2023-03-10T04:55:03.713Z,98974.97
2023-03-10T04:57:30.245Z,98969.53
2023-03-10T04:59:56.897Z,98974.22
2023-03-10T05:02:23.421Z,98986.59
2023-03-10T05:04:50.070Z,98978.75
2023-03-10T05:07:16.641Z,98975.22
2023-03-10T05:09:43.157Z,98969.16
2023-03-10T05:12:10.328Z,98976.19
2023-03-10T05:14:37.716Z,98973.13
2023-03-10T05:17:04.346Z,98976.19
2023-03-10T05:19:30.846Z,98971.53
2023-03-10T05:21:57.358Z,98965.59
2023-03-10T05:24:23.913Z,98976.13
2023-03-10T05:26:50.658Z,98970.41
2023-03-10T05:29:17.191Z,98986.81
2023-03-10T05:31:43.794Z,98979.97
2023-03-10T05:34:10.448Z,98988.47
2023-03-10T05:36:37.141Z,98981.34
2023-03-10T05:39:05.875Z,98986.75
2023-03-10T05:41:33.041Z,98983.91
2023-03-10T05:43:59.580Z,98988.16
2023-03-10T05:46:26.647Z,98982.31
2023-03-10T05:48:53.671Z,98985.97
2023-03-10T05:51:20.624Z,98989.16
2023-03-10T05:53:47.272Z,98984.72
2023-03-10T05:56:18.544Z,98995.84
2023-03-10T05:58:46.616Z,98981.78
2023-03-10T06:01:14.035Z,98997.59
2023-03-10T06:03:40.821Z,99008.59
2023-03-10T06:06:07.910Z,99001.88
2023-03-10T06:08:35.260Z,99021.13
2023-03-10T06:11:01.852Z,99029.63
2023-03-10T06:13:28.385Z,99017.84
2023-03-10T06:15:58.432Z,99019.22
2023-03-10T06:18:25.353Z,99026.47
2023-03-10T06:20:53.644Z,99025.06
2023-03-10T06:23:21.175Z,99020.38
2023-03-10T06:26:06.947Z,99036.56
2023-03-10T06:28:36.786Z,99038.41
2023-03-10T06:31:07.475Z,99028.88
2023-03-10T06:33:35.533Z,99043.44
2023-03-10T06:36:02.529Z,99043.88
2023-03-10T06:38:30.453Z,99037.81
2023-03-10T06:40:57.731Z,99040.66
2023-03-10T06:43:24.484Z,99038.44
2023-03-10T06:45:51.143Z,99042.09
2023-03-10T06:48:17.878Z,99046.78
2023-03-10T06:50:48.086Z,99046.56
2023-03-10T06:53:16.993Z,99036.84
2023-03-10T06:55:43.749Z,99061.34
2023-03-10T06:58:10.481Z,99055.66
2023-03-10T07:00:39.065Z,99044.94
2023-03-10T07:03:05.953Z,99046.75
2023-03-10T07:05:32.538Z,99043.88
2023-03-10T07:07:59.308Z,99054.22
2023-03-10T07:10:25.871Z,99055.81
2023-03-10T07:12:55.351Z,99064.09
2023-03-10T07:15:26.356Z,99056.41
2023-03-10T07:17:56.131Z,99057.91
2023-03-10T07:20:24.435Z,99072.69
2023-03-10T07:22:51.366Z,99066.59
2023-03-10T07:30:57.715Z,100665.06
2023-03-10T07:33:24.377Z,100355.56
2023-03-10T07:35:50.948Z,100195.00
2023-03-10T07:38:17.749Z,100114.06
2023-03-10T07:40:44.266Z,100041.00
2023-03-10T07:43:10.867Z,99989.88
2023-03-10T07:45:38.488Z,99957.28
2023-03-10T07:48:05.557Z,99927.03
2023-03-10T07:50:32.076Z,99905.53
2023-03-10T07:52:58.569Z,99875.09
2023-03-10T07:55:25.148Z,99861.50
2023-03-10T07:57:51.857Z,99828.44
2023-03-10T08:00:18.637Z,99812.19
2023-03-10T08:02:45.199Z,99789.25
2023-03-10T08:05:12.251Z,99771.78
2023-03-10T08:07:39.130Z,99751.31
2023-03-10T08:10:06.463Z,99742.16
2023-03-10T08:12:33.676Z,99735.03
2023-03-10T08:15:00.436Z,99725.47
2023-03-10T08:17:31.018Z,99706.22
2023-03-10T08:19:58.825Z,99695.25
2023-03-10T08:22:26.130Z,99682.28
2023-03-10T08:24:52.829Z,99666.84
2023-03-10T08:27:19.532Z,99663.19
2023-03-10T08:29:46.163Z,99664.63
2023-03-10T08:32:12.748Z,99645.13
2023-03-10T08:34:39.839Z,99642.72
2023-03-10T08:37:06.722Z,99639.88
2023-03-10T08:39:33.357Z,99623.03
2023-03-10T08:42:00.110Z,99628.28
2023-03-10T08:44:26.973Z,99620.19
2023-03-10T08:46:53.666Z,99614.09
2023-03-10T08:49:21.788Z,99613.88
2023-03-10T08:51:49.357Z,99607.38
2023-03-10T08:54:18.618Z,99606.34
2023-03-10T08:56:45.137Z,99592.75
2023-03-10T08:59:11.936Z,99597.22
2023-03-10T09:01:39.018Z,99599.06
2023-03-10T09:04:08.360Z,99589.50
2023-03-10T09:06:35.905Z,99577.53
2023-03-10T09:09:03.258Z,99573.88
2023-03-10T09:11:33.466Z,99575.09
2023-03-10T09:14:01.480Z,99559.66
2023-03-10T09:16:28.899Z,99559.44
2023-03-10T09:18:58.882Z,99554.94
2023-03-10T09:21:26.098Z,99551.91
2023-03-10T09:23:53.215Z,99535.44
2023-03-10T09:26:20.823Z,99541.94
2023-03-10T09:28:49.484Z,99529.94
2023-03-10T09:31:23.520Z,99539.25
2023-03-10T09:33:50.186Z,99528.31
2023-03-10T09:36:21.126Z,99527.06
2023-03-10T09:38:47.735Z,99518.34
2023-03-10T09:41:35.201Z,99532.09
2023-03-10T09:44:37.876Z,99536.78
2023-03-10T09:47:10.853Z,99535.31
2023-03-10T09:49:51.610Z,99545.25
2023-03-10T09:52:22.422Z,99539.38
2023-03-10T09:55:18.147Z,99536.09
2023-03-10T09:57:48.065Z,99530.38
2023-03-10T10:00:22.090Z,99533.19
2023-03-10T10:02:56.318Z,99536.63
2023-03-10T10:05:31.469Z,99537.22
2023-03-10T10:08:01.042Z,99539.44
2023-03-10T10:10:35.668Z,99532.72
2023-03-10T10:13:17.512Z,99531.47
2023-03-10T10:16:07.336Z,99527.59
2023-03-10T10:19:14.074Z,99533.50
2023-03-10T10:21:47.138Z,99517.66
2023-03-10T10:24:14.594Z,99512.75
2023-03-10T10:26:41.288Z,99487.19
2023-03-10T10:29:22.342Z,99470.09
2023-03-10T10:32:09.112Z,99449.53
2023-03-10T10:34:38.236Z,99440.00
2023-03-10T10:37:27.074Z,99423.72
2023-03-10T10:39:55.878Z,99374.38
2023-03-10T10:42:33.930Z,99357.34
2023-03-10T10:45:04.024Z,99352.50
2023-03-10T10:47:35.325Z,99360.44
2023-03-10T10:50:18.150Z,99342.06
2023-03-10T10:52:48.839Z,99340.09
2023-03-10T10:55:31.802Z,99327.19
2023-03-10T10:58:03.352Z,99330.78
2023-03-10T11:00:37.123Z,99334.44
2023-03-10T11:03:33.895Z,99329.31
2023-03-10T11:06:01.297Z,99312.38
2023-03-10T11:08:27.770Z,99298.50
2023-03-10T11:11:02.956Z,99287.94
2023-03-10T11:13:39.522Z,99292.63
2023-03-10T11:16:44.435Z,99297.91
2023-03-10T11:19:23.017Z,99296.03
2023-03-10T11:21:54.730Z,99290.81
2023-03-10T11:24:25.993Z,99305.03
2023-03-10T11:27:07.863Z,99315.06
2023-03-10T11:30:02.780Z,99323.94
2023-03-10T11:32:41.376Z,99316.66
2023-03-10T11:35:29.577Z,99301.50
2023-03-10T11:38:37.881Z,99273.56
2023-03-10T11:41:13.926Z,99267.25
2023-03-10T11:44:08.503Z,99272.13
2023-03-10T11:46:53.194Z,99293.97
2023-03-10T11:49:24.367Z,99304.34
2023-03-10T11:51:55.943Z,99317.09
2023-03-10T11:54:48.248Z,99331.78
2023-03-10T11:57:20.348Z,99357.13
2023-03-10T11:59:59.761Z,99371.22
2023-03-10T12:03:04.247Z,99351.09
2023-03-10T12:05:39.539Z,99367.66
2023-03-10T12:08:06.857Z,99379.94
2023-03-10T12:10:37.337Z,99380.19
2023-03-10T12:13:04.719Z,99362.00
2023-03-10T12:15:39.856Z,99384.25
2023-03-10T12:18:08.154Z,99412.97
2023-03-10T12:20:35.529Z,99436.00
2023-03-10T12:23:11.442Z,99451.31
2023-03-10T12:25:38.446Z,99445.81
2023-03-10T12:28:17.354Z,99475.97
2023-03-10T12:30:45.936Z,99474.38
2023-03-10T12:33:30.921Z,99467.78
2023-03-10T12:36:13.274Z,99482.66
2023-03-10T12:38:58.747Z,99503.81
2023-03-10T12:41:28.471Z,99525.25
2023-03-10T12:44:36.875Z,99541.69
2023-03-10T12:47:09.785Z,99595.31
2023-03-10T12:49:44.481Z,99631.09
2023-03-10T12:52:24.681Z,99661.94
2023-03-10T12:55:12.750Z,99684.22
2023-03-10T12:57:50.722Z,99724.13
2023-03-10T13:00:35.468Z,99764.72
2023-03-10T13:03:11.157Z,99792.97
2023-03-10T13:05:41.479Z,99804.13
2023-03-10T13:08:22.931Z,99804.34
2023-03-10T13:10:55.557Z,99818.19
2023-03-10T13:13:28.949Z,99848.97
2023-03-10T13:16:07.456Z,99869.94
2023-03-10T13:18:35.183Z,99895.97
2023-03-10T13:21:01.815Z,99911.53
2023-03-10T13:23:34.420Z,99915.97
2023-03-10T13:26:09.363Z,99942.16
2023-03-10T13:28:36.578Z,99964.06
2023-03-10T13:31:14.603Z,99999.56
2023-03-10T13:33:52.802Z,100008.69
2023-03-10T13:36:37.277Z,100043.22
2023-03-10T13:39:15.908Z,100055.78
2023-03-10T13:41:48.165Z,100078.84
2023-03-10T13:44:18.628Z,100095.03
2023-03-10T13:46:54.026Z,100138.16
2023-03-10T13:49:25.677Z,100166.41
2023-03-10T13:52:00.720Z,100183.88
2023-03-10T13:54:35.367Z,100205.63
2023-03-10T13:57:15.808Z,100244.38
2023-03-10T13:59:43.733Z,100280.97
2023-03-10T14:02:27.071Z,100290.81
2023-03-10T14:04:54.802Z,100318.38
2023-03-10T14:07:24.223Z,100345.19
2023-03-10T14:10:05.916Z,100366.56
2023-03-10T14:12:47.257Z,100379.03
2023-03-10T14:15:20.329Z,100411.03
2023-03-10T14:18:06.755Z,100421.47
2023-03-10T14:20:36.168Z,100452.44
2023-03-10T14:23:26.470Z,100525.19
2023-03-10T14:25:56.463Z,100528.91
2023-03-10T14:28:33.664Z,100541.19
2023-03-10T14:31:02.817Z,100517.50
2023-03-10T14:33:29.474Z,100536.59
2023-03-10T14:35:56.093Z,100530.44
2023-03-10T14:38:22.833Z,100535.41
2023-03-10T14:40:55.610Z,100543.41
2023-03-10T14:43:25.572Z,100570.72
2023-03-10T14:45:55.131Z,100610.75
2023-03-10T14:48:25.480Z,100613.72
2023-03-10T14:50:54.065Z,100616.47
2023-03-10T14:53:27.024Z,100636.69
2023-03-10T14:55:56.104Z,100672.06
2023-03-10T14:58:31.513Z,100661.06
2023-03-10T15:00:58.433Z,100676.84
2023-03-10T15:03:25.286Z,100707.66
2023-03-10T15:05:51.837Z,100712.16
2023-03-10T15:08:21.289Z,100716.53
2023-03-10T15:10:51.077Z,100746.66
2023-03-10T15:13:20.152Z,100765.25
2023-03-10T15:15:47.959Z,100780.81
2023-03-10T15:18:17.467Z,100769.13
2023-03-10T15:20:44.398Z,100787.41
2023-03-10T15:23:14.538Z,100829.34
2023-03-10T15:25:43.701Z,100868.25
2023-03-10T15:28:12.690Z,100881.47
2023-03-10T15:30:41.814Z,100899.34
2023-03-10T15:33:08.531Z,100922.50
2023-03-10T15:35:35.307Z,100917.81
2023-03-10T15:38:02.487Z,100924.72
2023-03-10T15:40:31.415Z,100926.78
2023-03-10T15:42:59.843Z,100902.53
2023-03-10T15:45:28.952Z,100918.78
2023-03-10T15:47:56.124Z,100888.91
2023-03-10T15:50:23.654Z,100896.38
2023-03-10T15:52:56.139Z,100904.06
2023-03-10T15:55:23.859Z,100918.63
2023-03-10T15:57:50.641Z,100934.31
2023-03-10T16:00:19.189Z,100946.75
2023-03-10T16:02:46.840Z,100963.09
2023-03-10T16:05:13.976Z,100956.38
2023-03-10T16:07:40.795Z,100954.97
2023-03-10T16:10:10.635Z,100958.69
2023-03-10T16:12:37.175Z,100956.63
2023-03-10T16:15:04.173Z,100962.81
2023-03-10T16:17:33.482Z,100983.16
2023-03-10T16:20:02.245Z,100973.38
2023-03-10T16:22:28.948Z,100981.06
2023-03-10T16:24:55.711Z,100995.66
2023-03-10T16:27:22.324Z,101019.84
2023-03-10T16:29:48.931Z,101043.50
2023-03-10T16:32:17.576Z,101070.47
2023-03-10T16:34:44.193Z,101062.03
2023-03-10T16:37:10.865Z,101056.44
2023-03-10T16:39:37.410Z,101067.69
2023-03-10T16:42:04.094Z,101064.38
2023-03-10T16:44:30.609Z,101072.97
2023-03-10T16:46:57.349Z,101078.72
2023-03-10T16:49:23.908Z,101101.38
2023-03-10T16:51:50.401Z,101116.59
2023-03-10T16:54:19.538Z,101117.44
2023-03-10T16:56:52.138Z,101100.22
2023-03-10T16:59:26.769Z,101131.09
2023-03-10T17:01:53.727Z,101145.78
2023-03-10T17:04:20.477Z,101160.63
2023-03-10T17:06:47.852Z,101170.16
2023-03-10T17:09:16.341Z,101166.00
2023-03-10T17:11:49.704Z,101173.25
2023-03-10T17:14:16.979Z,101142.81
2023-03-10T17:16:45.268Z,101147.56
2023-03-10T17:19:17.922Z,101142.69
2023-03-10T17:21:49.879Z,101135.38
2023-03-10T17:24:18.144Z,101134.91
2023-03-10T17:26:45.779Z,101140.47
2023-03-10T17:29:12.957Z,101151.47
2023-03-10T17:31:39.718Z,101158.47
2023-03-10T17:34:10.424Z,101178.88
2023-03-10T17:36:36.986Z,101182.88
2023-03-10T17:39:05.238Z,101201.25
2023-03-10T17:41:34.281Z,101208.16
2023-03-10T17:44:01.067Z,101209.41
2023-03-10T17:46:29.692Z,101221.53
2023-03-10T17:48:57.462Z,101220.44
2023-03-10T17:51:27.526Z,101227.34
2023-03-10T17:53:57.238Z,101244.53
2023-03-10T17:56:24.562Z,101245.97
2023-03-10T17:58:54.595Z,101258.75
2023-03-10T18:01:27.427Z,101260.16
2023-03-10T18:03:56.125Z,101255.66
2023-03-10T18:06:29.389Z,101241.19
2023-03-10T18:08:57.873Z,101227.34
2023-03-10T18:16:33.779Z,101998.94
2023-03-10T18:19:01.249Z,101850.88
2023-03-10T18:21:28.651Z,101751.72
2023-03-10T18:23:55.698Z,101680.03
2023-03-10T18:26:27.542Z,101668.09
2023-03-10T18:28:54.596Z,101659.75
2023-03-10T18:31:30.581Z,101660.50
2023-03-10T18:33:58.875Z,101633.22
2023-03-10T18:36:26.666Z,101628.25
2023-03-10T18:38:53.498Z,101577.03
2023-03-10T18:41:25.566Z,101567.16
2023-03-10T18:43:52.758Z,101428.66
2023-03-10T18:46:19.946Z,101440.63
2023-03-10T18:48:46.545Z,101445.38
2023-03-10T18:51:16.422Z,101413.56
2023-03-10T18:53:45.265Z,101390.44
2023-03-10T18:56:11.849Z,101365.50
2023-03-10T18:58:38.338Z,101321.84
2023-03-10T19:01:11.613Z,101274.00
2023-03-10T19:03:38.702Z,101255.88
2023-03-10T19:06:05.996Z,101251.94
2023-03-10T19:08:35.049Z,101219.09
2023-03-10T19:11:02.111Z,101206.06
2023-03-10T19:13:30.086Z,101197.84
2023-03-10T19:15:58.939Z,101177.34
2023-03-10T19:18:25.439Z,101143.00
2023-03-10T19:21:00.349Z,101129.00
2023-03-10T19:23:29.184Z,101104.78
2023-03-10T19:25:57.500Z,101093.66
2023-03-10T19:28:24.132Z,101080.63
2023-03-10T19:30:50.814Z,101046.25
2023-03-10T19:33:17.990Z,101019.63
2023-03-10T19:35:49.907Z,100974.06
2023-03-10T19:38:16.473Z,100954.03
2023-03-10T19:40:46.580Z,100936.44
2023-03-10T19:43:13.915Z,100891.00
2023-03-10T19:45:40.545Z,100859.44
2023-03-10T19:48:07.180Z,100850.63
2023-03-10T19:50:33.696Z,100839.09
2023-03-10T19:53:00.561Z,100816.44
2023-03-10T19:55:30.282Z,100793.47
2023-03-10T19:57:57.073Z,100773.38
2023-03-10T20:00:30.897Z,100593.75
2023-03-10T20:02:57.811Z,100592.31
2023-03-10T20:05:26.899Z,100578.03
2023-03-10T20:07:54.143Z,100588.72
2023-03-10T20:10:25.143Z,100583.81
2023-03-10T20:12:53.196Z,100592.75
2023-03-10T20:15:22.679Z,100579.06
2023-03-10T20:17:49.265Z,100587.97
2023-03-10T20:20:20.071Z,100581.09
2023-03-10T20:22:50.353Z,100594.19
2023-03-10T20:25:20.341Z,100617.44
2023-03-10T20:27:48.978Z,100627.91
2023-03-10T20:30:17.583Z,100624.63
2023-03-10T20:32:44.734Z,100632.22
2023-03-10T20:35:13.143Z,100632.59
2023-03-10T20:37:41.952Z,100638.41
2023-03-10T20:40:13.659Z,100628.63
2023-03-10T20:42:40.547Z,100643.63
2023-03-10T20:45:08.672Z,100641.84
2023-03-10T20:47:35.840Z,100649.25
2023-03-10T20:50:03.953Z,100661.63
2023-03-10T20:52:34.711Z,100663.81
2023-03-10T20:55:02.167Z,100668.56
2023-03-10T20:57:29.161Z,100678.69
2023-03-10T20:59:55.977Z,100692.56
2023-03-10T21:02:22.665Z,100712.09
2023-03-10T21:04:49.466Z,100722.53
2023-03-10T21:07:16.334Z,100736.47
2023-03-10T21:09:43.656Z,100750.22
2023-03-10T21:12:10.302Z,100750.41
2023-03-10T21:14:36.925Z,100745.84
2023-03-10T21:17:05.278Z,100745.59
2023-03-10T21:19:31.921Z,100753.53
2023-03-10T21:21:58.407Z,100757.22
2023-03-10T21:24:24.939Z,100768.75
2023-03-10T21:26:51.610Z,100777.13
2023-03-10T21:29:18.141Z,100778.22
2023-03-10T21:31:44.625Z,100786.75
2023-03-10T21:34:11.338Z,100800.38
2023-03-10T21:36:38.132Z,100796.50
2023-03-10T21:39:05.405Z,100812.16
2023-03-10T21:41:31.965Z,100817.94
2023-03-10T21:43:59.106Z,100817.22
2023-03-10T21:46:27.194Z,100826.84
2023-03-10T21:48:53.998Z,100829.88
2023-03-10T21:51:23.955Z,100829.88
2023-03-10T21:53:53.605Z,100836.78
2023-03-10T21:56:22.187Z,100829.38
2023-03-10T21:58:49.222Z,100834.09
2023-03-10T22:01:17.650Z,100839.53
2023-03-10T22:03:44.478Z,100835.28
2023-03-10T22:06:11.376Z,100840.50
2023-03-10T22:08:38.664Z,100848.66
2023-03-10T22:11:06.947Z,100854.50
2023-03-10T22:13:34.793Z,100859.88
2023-03-10T22:16:02.375Z,100857.72
2023-03-10T22:18:29.064Z,100867.13
2023-03-10T22:20:55.589Z,100865.91
2023-03-10T22:23:22.259Z,100863.81
2023-03-10T22:25:49.000Z,100866.56
2023-03-10T22:28:15.841Z,100873.97
2023-03-10T22:30:42.634Z,100867.16
2023-03-10T22:33:09.311Z,100869.78
2023-03-10T22:35:39.045Z,100872.69
2023-03-10T22:38:06.162Z,100865.44
2023-03-10T22:40:33.184Z,100880.38
2023-03-10T22:42:59.849Z,100867.19
2023-03-10T22:45:29.639Z,100883.13
2023-03-10T22:47:58.772Z,100889.78
2023-03-10T22:50:28.883Z,100895.38
2023-03-10T22:52:55.796Z,100889.53
2023-03-10T22:55:25.059Z,100891.84
2023-03-10T22:57:52.618Z,100899.97
2023-03-10T23:00:21.766Z,100911.16
2023-03-10T23:02:50.016Z,100913.06
2023-03-10T23:05:17.114Z,100916.47
2023-03-10T23:07:43.857Z,100912.72
2023-03-10T23:10:19.096Z,100918.72
2023-03-10T23:12:46.008Z,100921.75
2023-03-10T23:15:24.714Z,100919.97
2023-03-10T23:17:52.552Z,100922.19
2023-03-10T23:20:19.301Z,100919.84
2023-03-10T23:22:47.138Z,100923.09
2023-03-10T23:25:16.565Z,100924.44
2023-03-10T23:27:43.109Z,100925.03
2023-03-10T23:30:10.715Z,100920.28
2023-03-10T23:32:37.912Z,100932.72
2023-03-10T23:35:09.035Z,100929.34
2023-03-10T23:37:36.833Z,100928.44
2023-03-10T23:40:11.804Z,100927.00
2023-03-10T23:42:38.967Z,100931.13
2023-03-10T23:45:07.332Z,100934.13
2023-03-10T23:47:34.914Z,100939.72
2023-03-10T23:50:02.459Z,100935.56
2023-03-10T23:52:29.005Z,100948.00
2023-03-10T23:54:55.533Z,100951.31
2023-03-10T23:57:22.161Z,100955.03
2023-03-10T23:59:48.917Z,100949.94
